Pittsburg, CA

1:24 PM PDT on September 30, 2014 (GMT -0700)
Pittsburg's Delta View Golf Course | Change Station
CLOSE
Current Station
Personal Weather Station
Location: Pittsburg, CA
Elevation: 69 ft
Nearby Weather Stations

Elev 69 ft 38.01 °N, 121.91 °W | Updated 9 seconds ago

Clear
Clear
78.8 °F
Feels Like 80 °F
N
2.2
Wind Variable Wind from SW
Gusts 5.8 mph

Today
High -- | Low -- °F
--% Chance of Precip.
Yesterday
High -- | Low -- °F
Precip. -- in
7:02 AM 6:52 PM
Waxing Crescent, 39% visible
Pressure 29.88 in
Visibility 10.0 miles
Clouds Few 2000 ft
Heat Index 80 °F
Dew Point 59 °F
Humidity 51%
Rainfall 0.00 in
Snow Depth 0 in , 0 in , 1 in
UV 7 out of 12
Pollen 2.80 out of 12
PM2.5 Good
Flu Activity Not available.
METAR KCCR 301953Z VRB04KT 10SM FEW020 23/13 A2992 RMK AO2 SLP119 T02330128

More Conditions Fewer Conditions

Pressure 29.88 in
Visibility 10.0 miles
Clouds Few 2000 ft
Heat Index 80 °F
Dew Point 59 °F
Humidity 51%
Rainfall 0.00 in
Snow Depth 0 in , 0 in , 1 in
UV 7 out of 12
Pollen 2.80 out of 12
PM2.5 Good
Flu Activity Not available.
METAR KCCR 301953Z VRB04KT 10SM FEW020 23/13 A2992 RMK AO2 SLP119 T02330128

More Conditions Fewer Conditions

10-Day Weather Forecast

Almanac

Astronomy

Sep. 30, 2014 Rise Set
Actual Time 7:02 AM PDT 6:52 PM PDT
Civil Twilight 6:36 AM PDT 7:18 PM PDT
Nautical Twilight 6:05 AM PDT 7:48 PM PDT
Astronomical Twilight 5:34 AM PDT 8:19 PM PDT
Moon 1:11 PM PDT 11:31 PM PDT
Length of Visible Light 12h 41m
Length of Day
11h 49m
Tomorrow will be 2m 25s shorter.
Waxing Crescent, 39% of the Moon is Illuminated
Today
Waxing Crescent
Oct 1
First Quarter
Oct 8
Full
Oct 15
Last Quarter
Oct 23
New

Today's Extremes

State Highs State Lows

Community

WunderPhotos

Upload Photos

1,757,740 photos uploaded!

Nearby

Air Quality

  Air Quality AQ Index Pollutant
Yesterday Good
PM2.5
Yesterday Good
OZONE
Current Good
PM2.5
Tuesday Good
OZONE
Wednesday Good
OZONE
Thursday Moderate
OZONE
Friday Moderate
OZONE
Saturday Moderate
OZONE
Sunday Moderate
OZONE

Snow Depth

Station Depth Elevation
Leavitt Meadows 0 in 7200 ft
Leavitt Lake 0 in 9400 ft
Blue Lakes 0 in 8000 ft
Rubicon #2 1 in 7500 ft
Monitor Pass 0 in 8350 ft

Earthquake Activity

City Distance Mag. Time & Date
South Dos Palos, California 112 miles 2.5 9:18 PM PDT
2014-09-29
American Canyon, California 23 miles 2.5 12:17 AM PDT
2014-09-29
South Dos Palos, California 112 miles 2.7 8:46 PM PDT
2014-09-28
South Dos Palos, California 112 miles 4.4 1:45 PM PDT
2014-09-28
Minimum magnitude displayed is 2.5.

Coastal Water Temperatures

Place Temperature
San Francisco, CA 64.9 °F
Richmond, CA 68.0 °F
Port Chicago, CA 69.1 °F

Nearby Weather Stations